sensor_id;sensor_type;location;lat;lon;timestamp;P1;durP1;ratioP1;P2;durP2;ratioP2
79126;SDS011;68528;48.814;8.904;2023-09-07T00:00:48;3.70;;;2.58;;
79126;SDS011;68528;48.814;8.904;2023-09-07T00:03:13;5.20;;;3.00;;
79126;SDS011;68528;48.814;8.904;2023-09-07T00:05:39;3.13;;;2.15;;
79126;SDS011;68528;48.814;8.904;2023-09-07T00:08:05;3.72;;;2.45;;
79126;SDS011;68528;48.814;8.904;2023-09-07T00:10:31;3.90;;;2.65;;
79126;SDS011;68528;48.814;8.904;2023-09-07T00:13:03;3.97;;;2.25;;
79126;SDS011;68528;48.814;8.904;2023-09-07T00:15:48;4.03;;;2.67;;
79126;SDS011;68528;48.814;8.904;2023-09-07T00:18:14;5.72;;;2.50;;
79126;SDS011;68528;48.814;8.904;2023-09-07T00:20:41;2.92;;;2.60;;
79126;SDS011;68528;48.814;8.904;2023-09-07T00:23:06;3.80;;;2.70;;
79126;SDS011;68528;48.814;8.904;2023-09-07T00:25:31;3.72;;;2.90;;
79126;SDS011;68528;48.814;8.904;2023-09-07T00:27:57;3.80;;;2.65;;
79126;SDS011;68528;48.814;8.904;2023-09-07T00:30:22;3.78;;;2.67;;
79126;SDS011;68528;48.814;8.904;2023-09-07T00:33:11;7.05;;;2.67;;
79126;SDS011;68528;48.814;8.904;2023-09-07T00:35:39;3.45;;;2.63;;
79126;SDS011;68528;48.814;8.904;2023-09-07T00:38:05;5.00;;;2.95;;
79126;SDS011;68528;48.814;8.904;2023-09-07T00:40:30;3.55;;;2.60;;
79126;SDS011;68528;48.814;8.904;2023-09-07T00:42:56;4.55;;;3.15;;
79126;SDS011;68528;48.814;8.904;2023-09-07T00:45:21;5.50;;;2.75;;
79126;SDS011;68528;48.814;8.904;2023-09-07T00:47:47;4.07;;;2.60;;
79126;SDS011;68528;48.814;8.904;2023-09-07T00:50:13;5.38;;;2.22;;
79126;SDS011;68528;48.814;8.904;2023-09-07T00:52:44;7.10;;;3.22;;
79126;SDS011;68528;48.814;8.904;2023-09-07T00:55:11;3.55;;;2.53;;
79126;SDS011;68528;48.814;8.904;2023-09-07T00:57:38;3.40;;;2.55;;
79126;SDS011;68528;48.814;8.904;2023-09-07T01:00:07;2.90;;;2.13;;
79126;SDS011;68528;48.814;8.904;2023-09-07T01:02:34;3.35;;;2.72;;
79126;SDS011;68528;48.814;8.904;2023-09-07T01:05:01;4.40;;;2.85;;
79126;SDS011;68528;48.814;8.904;2023-09-07T01:07:46;3.53;;;2.30;;
79126;SDS011;68528;48.814;8.904;2023-09-07T01:10:22;4.22;;;3.15;;
79126;SDS011;68528;48.814;8.904;2023-09-07T01:12:49;3.15;;;2.60;;
79126;SDS011;68528;48.814;8.904;2023-09-07T01:15:15;3.13;;;2.53;;
79126;SDS011;68528;48.814;8.904;2023-09-07T01:17:42;4.35;;;2.70;;
79126;SDS011;68528;48.814;8.904;2023-09-07T01:20:08;4.18;;;2.80;;
79126;SDS011;68528;48.814;8.904;2023-09-07T01:22:35;3.08;;;2.60;;
79126;SDS011;68528;48.814;8.904;2023-09-07T01:27:53;6.38;;;2.95;;
79126;SDS011;68528;48.814;8.904;2023-09-07T01:30:40;3.75;;;2.67;;
79126;SDS011;68528;48.814;8.904;2023-09-07T01:33:07;2.50;;;2.30;;
79126;SDS011;68528;48.814;8.904;2023-09-07T01:35:34;4.00;;;2.90;;
79126;SDS011;68528;48.814;8.904;2023-09-07T01:38:00;4.40;;;3.25;;
79126;SDS011;68528;48.814;8.904;2023-09-07T01:40:26;3.55;;;2.72;;
79126;SDS011;68528;48.814;8.904;2023-09-07T01:42:51;4.07;;;2.90;;
79126;SDS011;68528;48.814;8.904;2023-09-07T01:45:17;3.80;;;2.95;;
79126;SDS011;68528;48.814;8.904;2023-09-07T01:47:44;3.97;;;2.88;;
79126;SDS011;68528;48.814;8.904;2023-09-07T01:50:10;4.40;;;2.63;;
79126;SDS011;68528;48.814;8.904;2023-09-07T01:52:35;4.05;;;2.10;;
79126;SDS011;68528;48.814;8.904;2023-09-07T01:55:00;4.45;;;2.92;;
79126;SDS011;68528;48.814;8.904;2023-09-07T01:57:26;4.50;;;2.75;;
79126;SDS011;68528;48.814;8.904;2023-09-07T01:59:51;5.10;;;2.97;;
79126;SDS011;68528;48.814;8.904;2023-09-07T02:02:17;5.03;;;2.80;;
79126;SDS011;68528;48.814;8.904;2023-09-07T02:04:42;5.07;;;3.03;;
79126;SDS011;68528;48.814;8.904;2023-09-07T02:07:27;5.10;;;3.05;;
79126;SDS011;68528;48.814;8.904;2023-09-07T02:09:53;3.60;;;2.70;;
79126;SDS011;68528;48.814;8.904;2023-09-07T02:12:20;3.90;;;3.08;;
79126;SDS011;68528;48.814;8.904;2023-09-07T02:14:45;4.78;;;2.92;;
79126;SDS011;68528;48.814;8.904;2023-09-07T02:17:11;3.45;;;2.70;;
79126;SDS011;68528;48.814;8.904;2023-09-07T02:19:39;4.85;;;2.78;;
79126;SDS011;68528;48.814;8.904;2023-09-07T02:22:39;4.03;;;2.83;;
79126;SDS011;68528;48.814;8.904;2023-09-07T02:25:05;4.90;;;3.13;;
79126;SDS011;68528;48.814;8.904;2023-09-07T02:27:33;2.75;;;2.47;;
79126;SDS011;68528;48.814;8.904;2023-09-07T02:29:59;3.42;;;2.60;;
79126;SDS011;68528;48.814;8.904;2023-09-07T02:32:24;4.97;;;3.78;;
79126;SDS011;68528;48.814;8.904;2023-09-07T02:34:49;5.25;;;3.40;;
79126;SDS011;68528;48.814;8.904;2023-09-07T02:37:15;7.50;;;3.13;;
79126;SDS011;68528;48.814;8.904;2023-09-07T02:39:41;4.82;;;3.08;;
79126;SDS011;68528;48.814;8.904;2023-09-07T02:42:08;4.50;;;3.35;;
79126;SDS011;68528;48.814;8.904;2023-09-07T02:44:34;4.78;;;3.00;;
79126;SDS011;68528;48.814;8.904;2023-09-07T02:47:01;4.70;;;3.10;;
79126;SDS011;68528;48.814;8.904;2023-09-07T02:49:26;3.85;;;3.03;;
79126;SDS011;68528;48.814;8.904;2023-09-07T02:51:52;8.43;;;3.35;;
79126;SDS011;68528;48.814;8.904;2023-09-07T02:54:17;3.55;;;2.83;;
79126;SDS011;68528;48.814;8.904;2023-09-07T02:56:43;5.03;;;3.28;;
79126;SDS011;68528;48.814;8.904;2023-09-07T03:01:56;5.63;;;3.67;;
79126;SDS011;68528;48.814;8.904;2023-09-07T03:18:55;4.70;;;3.35;;
79126;SDS011;68528;48.814;8.904;2023-09-07T03:21:29;4.00;;;2.95;;
79126;SDS011;68528;48.814;8.904;2023-09-07T03:23:58;4.10;;;3.28;;
79126;SDS011;68528;48.814;8.904;2023-09-07T03:26:23;5.55;;;3.53;;
79126;SDS011;68528;48.814;8.904;2023-09-07T03:28:49;4.78;;;3.58;;
79126;SDS011;68528;48.814;8.904;2023-09-07T03:31:14;4.45;;;3.33;;
79126;SDS011;68528;48.814;8.904;2023-09-07T03:33:40;3.80;;;2.85;;
79126;SDS011;68528;48.814;8.904;2023-09-07T03:36:07;4.00;;;3.13;;
79126;SDS011;68528;48.814;8.904;2023-09-07T03:38:52;4.65;;;3.42;;
79126;SDS011;68528;48.814;8.904;2023-09-07T03:41:17;4.28;;;3.17;;
79126;SDS011;68528;48.814;8.904;2023-09-07T03:43:43;4.82;;;3.15;;
79126;SDS011;68528;48.814;8.904;2023-09-07T03:46:08;4.40;;;3.30;;
79126;SDS011;68528;48.814;8.904;2023-09-07T03:48:33;4.07;;;3.10;;
79126;SDS011;68528;48.814;8.904;2023-09-07T03:53:46;5.82;;;3.60;;
79126;SDS011;68528;48.814;8.904;2023-09-07T03:56:12;4.75;;;3.40;;
79126;SDS011;68528;48.814;8.904;2023-09-07T03:58:37;6.07;;;3.22;;
79126;SDS011;68528;48.814;8.904;2023-09-07T04:01:02;4.63;;;3.80;;
79126;SDS011;68528;48.814;8.904;2023-09-07T04:03:29;5.22;;;3.65;;
79126;SDS011;68528;48.814;8.904;2023-09-07T04:05:54;6.15;;;3.90;;
79126;SDS011;68528;48.814;8.904;2023-09-07T04:08:20;7.72;;;3.95;;
79126;SDS011;68528;48.814;8.904;2023-09-07T04:13:11;4.47;;;3.13;;
79126;SDS011;68528;48.814;8.904;2023-09-07T04:15:44;5.93;;;3.97;;
79126;SDS011;68528;48.814;8.904;2023-09-07T04:18:10;8.85;;;3.47;;
79126;SDS011;68528;48.814;8.904;2023-09-07T04:20:38;3.80;;;3.17;;
79126;SDS011;68528;48.814;8.904;2023-09-07T04:23:04;3.47;;;3.05;;
79126;SDS011;68528;48.814;8.904;2023-09-07T04:25:29;6.57;;;3.75;;
79126;SDS011;68528;48.814;8.904;2023-09-07T04:27:55;5.75;;;3.40;;
79126;SDS011;68528;48.814;8.904;2023-09-07T04:30:21;11.48;;;3.70;;
79126;SDS011;68528;48.814;8.904;2023-09-07T04:32:55;5.18;;;3.28;;
79126;SDS011;68528;48.814;8.904;2023-09-07T04:35:20;6.05;;;3.47;;
79126;SDS011;68528;48.814;8.904;2023-09-07T04:37:46;6.82;;;3.65;;
79126;SDS011;68528;48.814;8.904;2023-09-07T04:40:11;4.93;;;3.45;;
79126;SDS011;68528;48.814;8.904;2023-09-07T04:42:37;5.00;;;3.72;;
79126;SDS011;68528;48.814;8.904;2023-09-07T04:45:05;4.15;;;3.47;;
79126;SDS011;68528;48.814;8.904;2023-09-07T04:47:31;5.35;;;3.30;;
79126;SDS011;68528;48.814;8.904;2023-09-07T04:49:57;4.93;;;3.58;;
79126;SDS011;68528;48.814;8.904;2023-09-07T04:52:23;5.82;;;3.60;;
79126;SDS011;68528;48.814;8.904;2023-09-07T04:54:49;6.97;;;3.38;;
79126;SDS011;68528;48.814;8.904;2023-09-07T04:57:15;3.63;;;2.85;;
79126;SDS011;68528;48.814;8.904;2023-09-07T04:59:42;5.43;;;3.95;;
79126;SDS011;68528;48.814;8.904;2023-09-07T05:02:07;7.93;;;3.50;;
79126;SDS011;68528;48.814;8.904;2023-09-07T05:04:33;4.45;;;3.33;;
79126;SDS011;68528;48.814;8.904;2023-09-07T05:06:59;4.57;;;3.50;;
79126;SDS011;68528;48.814;8.904;2023-09-07T05:09:24;3.65;;;2.88;;
79126;SDS011;68528;48.814;8.904;2023-09-07T05:11:51;5.57;;;3.45;;
79126;SDS011;68528;48.814;8.904;2023-09-07T05:14:17;4.80;;;3.45;;
79126;SDS011;68528;48.814;8.904;2023-09-07T05:16:43;3.83;;;3.40;;
79126;SDS011;68528;48.814;8.904;2023-09-07T05:19:09;5.15;;;3.20;;
79126;SDS011;68528;48.814;8.904;2023-09-07T05:21:34;4.68;;;3.30;;
79126;SDS011;68528;48.814;8.904;2023-09-07T05:24:09;5.72;;;3.25;;
79126;SDS011;68528;48.814;8.904;2023-09-07T05:26:34;7.38;;;3.45;;
79126;SDS011;68528;48.814;8.904;2023-09-07T05:29:00;6.72;;;4.07;;
79126;SDS011;68528;48.814;8.904;2023-09-07T05:31:25;5.82;;;4.20;;
79126;SDS011;68528;48.814;8.904;2023-09-07T05:33:51;4.97;;;4.00;;
79126;SDS011;68528;48.814;8.904;2023-09-07T05:36:17;5.38;;;3.90;;
79126;SDS011;68528;48.814;8.904;2023-09-07T05:38:42;6.32;;;3.63;;
79126;SDS011;68528;48.814;8.904;2023-09-07T05:41:08;5.33;;;3.33;;
79126;SDS011;68528;48.814;8.904;2023-09-07T05:43:33;5.13;;;3.88;;
79126;SDS011;68528;48.814;8.904;2023-09-07T05:45:59;5.88;;;3.55;;
79126;SDS011;68528;48.814;8.904;2023-09-07T05:48:24;8.02;;;3.90;;
79126;SDS011;68528;48.814;8.904;2023-09-07T05:50:49;9.38;;;4.15;;
79126;SDS011;68528;48.814;8.904;2023-09-07T05:53:15;7.20;;;4.90;;
79126;SDS011;68528;48.814;8.904;2023-09-07T05:55:40;5.50;;;4.00;;
79126;SDS011;68528;48.814;8.904;2023-09-07T05:58:06;7.63;;;4.45;;
79126;SDS011;68528;48.814;8.904;2023-09-07T06:00:37;7.80;;;4.18;;
79126;SDS011;68528;48.814;8.904;2023-09-07T06:03:05;5.35;;;3.55;;
79126;SDS011;68528;48.814;8.904;2023-09-07T06:05:31;6.85;;;4.32;;
79126;SDS011;68528;48.814;8.904;2023-09-07T06:07:56;5.32;;;4.05;;
79126;SDS011;68528;48.814;8.904;2023-09-07T06:10:22;6.55;;;4.07;;
79126;SDS011;68528;48.814;8.904;2023-09-07T06:12:48;6.05;;;4.68;;
79126;SDS011;68528;48.814;8.904;2023-09-07T06:15:13;6.53;;;5.07;;
79126;SDS011;68528;48.814;8.904;2023-09-07T06:17:38;7.60;;;4.82;;
79126;SDS011;68528;48.814;8.904;2023-09-07T06:20:04;6.53;;;4.78;;
79126;SDS011;68528;48.814;8.904;2023-09-07T06:22:51;6.95;;;4.25;;
79126;SDS011;68528;48.814;8.904;2023-09-07T06:25:20;6.93;;;4.25;;
79126;SDS011;68528;48.814;8.904;2023-09-07T06:27:47;5.97;;;3.92;;
79126;SDS011;68528;48.814;8.904;2023-09-07T06:30:12;5.93;;;4.60;;
79126;SDS011;68528;48.814;8.904;2023-09-07T06:32:38;6.30;;;4.35;;
79126;SDS011;68528;48.814;8.904;2023-09-07T06:35:03;10.05;;;4.50;;
79126;SDS011;68528;48.814;8.904;2023-09-07T06:37:32;6.18;;;3.83;;
79126;SDS011;68528;48.814;8.904;2023-09-07T06:40:01;4.90;;;3.83;;
79126;SDS011;68528;48.814;8.904;2023-09-07T06:42:28;5.55;;;4.32;;
79126;SDS011;68528;48.814;8.904;2023-09-07T06:44:55;9.00;;;5.07;;
79126;SDS011;68528;48.814;8.904;2023-09-07T06:47:21;5.55;;;3.70;;
79126;SDS011;68528;48.814;8.904;2023-09-07T06:49:46;5.57;;;3.85;;
79126;SDS011;68528;48.814;8.904;2023-09-07T06:52:12;5.20;;;3.80;;
79126;SDS011;68528;48.814;8.904;2023-09-07T06:54:38;3.97;;;3.58;;
79126;SDS011;68528;48.814;8.904;2023-09-07T06:57:06;5.90;;;4.25;;
79126;SDS011;68528;48.814;8.904;2023-09-07T06:59:33;7.72;;;4.20;;
79126;SDS011;68528;48.814;8.904;2023-09-07T07:01:59;4.40;;;3.47;;
79126;SDS011;68528;48.814;8.904;2023-09-07T07:04:25;5.65;;;3.75;;
79126;SDS011;68528;48.814;8.904;2023-09-07T07:06:51;5.63;;;4.03;;
79126;SDS011;68528;48.814;8.904;2023-09-07T07:09:16;4.68;;;3.55;;
79126;SDS011;68528;48.814;8.904;2023-09-07T07:11:41;5.82;;;4.13;;
79126;SDS011;68528;48.814;8.904;2023-09-07T07:14:08;4.20;;;3.53;;
79126;SDS011;68528;48.814;8.904;2023-09-07T07:16:35;4.90;;;3.70;;
79126;SDS011;68528;48.814;8.904;2023-09-07T07:19:01;6.07;;;4.07;;
79126;SDS011;68528;48.814;8.904;2023-09-07T07:21:26;4.68;;;3.70;;
79126;SDS011;68528;48.814;8.904;2023-09-07T07:23:52;6.20;;;3.63;;
79126;SDS011;68528;48.814;8.904;2023-09-07T07:26:17;6.43;;;4.18;;
79126;SDS011;68528;48.814;8.904;2023-09-07T07:28:43;5.70;;;3.70;;
79126;SDS011;68528;48.814;8.904;2023-09-07T07:31:09;4.82;;;3.88;;
79126;SDS011;68528;48.814;8.904;2023-09-07T07:33:35;6.57;;;3.83;;
79126;SDS011;68528;48.814;8.904;2023-09-07T07:36:00;4.57;;;3.58;;
79126;SDS011;68528;48.814;8.904;2023-09-07T07:38:41;4.60;;;3.40;;
79126;SDS011;68528;48.814;8.904;2023-09-07T07:41:06;6.15;;;4.10;;
79126;SDS011;68528;48.814;8.904;2023-09-07T07:43:32;5.95;;;4.10;;
79126;SDS011;68528;48.814;8.904;2023-09-07T07:45:58;4.20;;;3.47;;
79126;SDS011;68528;48.814;8.904;2023-09-07T07:48:25;5.75;;;3.15;;
79126;SDS011;68528;48.814;8.904;2023-09-07T07:50:50;6.85;;;4.50;;
79126;SDS011;68528;48.814;8.904;2023-09-07T07:53:24;4.22;;;3.33;;
79126;SDS011;68528;48.814;8.904;2023-09-07T07:55:49;5.38;;;4.00;;
79126;SDS011;68528;48.814;8.904;2023-09-07T07:58:15;4.07;;;3.60;;
79126;SDS011;68528;48.814;8.904;2023-09-07T08:00:40;4.40;;;3.40;;
79126;SDS011;68528;48.814;8.904;2023-09-07T08:03:13;7.30;;;3.83;;
79126;SDS011;68528;48.814;8.904;2023-09-07T08:05:38;5.47;;;3.72;;
79126;SDS011;68528;48.814;8.904;2023-09-07T08:08:04;4.95;;;3.55;;
79126;SDS011;68528;48.814;8.904;2023-09-07T08:10:33;8.82;;;3.90;;
79126;SDS011;68528;48.814;8.904;2023-09-07T08:13:08;4.53;;;4.10;;
79126;SDS011;68528;48.814;8.904;2023-09-07T08:15:33;5.85;;;4.05;;
79126;SDS011;68528;48.814;8.904;2023-09-07T08:17:59;4.63;;;3.47;;
79126;SDS011;68528;48.814;8.904;2023-09-07T08:20:25;7.13;;;3.63;;
79126;SDS011;68528;48.814;8.904;2023-09-07T08:22:51;6.53;;;3.95;;
79126;SDS011;68528;48.814;8.904;2023-09-07T08:25:17;7.03;;;3.60;;
79126;SDS011;68528;48.814;8.904;2023-09-07T08:27:43;7.03;;;4.22;;
79126;SDS011;68528;48.814;8.904;2023-09-07T08:30:11;5.63;;;3.53;;
79126;SDS011;68528;48.814;8.904;2023-09-07T08:32:37;3.60;;;3.30;;
79126;SDS011;68528;48.814;8.904;2023-09-07T08:35:03;7.25;;;3.22;;
79126;SDS011;68528;48.814;8.904;2023-09-07T08:37:32;5.50;;;3.60;;
79126;SDS011;68528;48.814;8.904;2023-09-07T08:39:58;7.55;;;4.60;;
79126;SDS011;68528;48.814;8.904;2023-09-07T08:42:25;3.85;;;3.50;;
79126;SDS011;68528;48.814;8.904;2023-09-07T08:44:51;6.57;;;3.83;;
79126;SDS011;68528;48.814;8.904;2023-09-07T08:47:39;6.18;;;4.40;;
79126;SDS011;68528;48.814;8.904;2023-09-07T08:50:05;4.95;;;4.03;;
79126;SDS011;68528;48.814;8.904;2023-09-07T08:52:34;5.28;;;3.75;;
79126;SDS011;68528;48.814;8.904;2023-09-07T08:55:04;5.95;;;3.97;;
79126;SDS011;68528;48.814;8.904;2023-09-07T08:57:33;7.25;;;3.78;;
79126;SDS011;68528;48.814;8.904;2023-09-07T08:59:58;6.35;;;4.63;;
79126;SDS011;68528;48.814;8.904;2023-09-07T09:02:26;6.18;;;4.35;;
79126;SDS011;68528;48.814;8.904;2023-09-07T09:04:51;4.93;;;4.03;;
79126;SDS011;68528;48.814;8.904;2023-09-07T09:07:18;6.88;;;4.70;;
79126;SDS011;68528;48.814;8.904;2023-09-07T09:09:43;11.73;;;5.75;;
79126;SDS011;68528;48.814;8.904;2023-09-07T09:12:12;4.95;;;3.28;;
79126;SDS011;68528;48.814;8.904;2023-09-07T09:14:39;5.43;;;4.47;;
79126;SDS011;68528;48.814;8.904;2023-09-07T09:17:10;5.10;;;3.88;;
79126;SDS011;68528;48.814;8.904;2023-09-07T09:19:38;5.78;;;4.13;;
79126;SDS011;68528;48.814;8.904;2023-09-07T09:22:03;9.43;;;5.00;;
79126;SDS011;68528;48.814;8.904;2023-09-07T09:27:57;6.20;;;4.43;;
79126;SDS011;68528;48.814;8.904;2023-09-07T09:32:57;6.47;;;4.20;;
79126;SDS011;68528;48.814;8.904;2023-09-07T09:35:24;5.70;;;3.92;;
79126;SDS011;68528;48.814;8.904;2023-09-07T09:38:00;4.43;;;3.90;;
79126;SDS011;68528;48.814;8.904;2023-09-07T09:43:40;7.50;;;4.18;;
79126;SDS011;68528;48.814;8.904;2023-09-07T09:46:14;8.73;;;3.85;;
79126;SDS011;68528;48.814;8.904;2023-09-07T09:48:40;6.40;;;4.88;;
79126;SDS011;68528;48.814;8.904;2023-09-07T09:51:07;6.07;;;4.43;;
79126;SDS011;68528;48.814;8.904;2023-09-07T09:53:32;5.32;;;3.78;;
79126;SDS011;68528;48.814;8.904;2023-09-07T09:55:58;7.38;;;4.45;;
79126;SDS011;68528;48.814;8.904;2023-09-07T09:58:24;4.57;;;4.07;;
79126;SDS011;68528;48.814;8.904;2023-09-07T10:00:50;5.53;;;4.10;;
79126;SDS011;68528;48.814;8.904;2023-09-07T10:03:28;5.95;;;4.65;;
79126;SDS011;68528;48.814;8.904;2023-09-07T10:05:56;4.65;;;3.85;;
79126;SDS011;68528;48.814;8.904;2023-09-07T10:08:58;6.80;;;4.25;;
79126;SDS011;68528;48.814;8.904;2023-09-07T10:11:26;4.07;;;3.67;;
79126;SDS011;68528;48.814;8.904;2023-09-07T10:16:28;5.35;;;4.15;;
79126;SDS011;68528;48.814;8.904;2023-09-07T10:19:03;5.93;;;4.15;;
79126;SDS011;68528;48.814;8.904;2023-09-07T10:21:45;7.60;;;5.63;;
79126;SDS011;68528;48.814;8.904;2023-09-07T10:24:11;4.80;;;4.30;;
79126;SDS011;68528;48.814;8.904;2023-09-07T10:27:01;4.75;;;4.20;;
79126;SDS011;68528;48.814;8.904;2023-09-07T10:29:28;5.07;;;4.47;;
79126;SDS011;68528;48.814;8.904;2023-09-07T10:31:54;6.05;;;4.70;;
79126;SDS011;68528;48.814;8.904;2023-09-07T10:34:21;7.07;;;4.40;;
79126;SDS011;68528;48.814;8.904;2023-09-07T10:36:47;6.07;;;4.65;;
79126;SDS011;68528;48.814;8.904;2023-09-07T10:39:19;5.13;;;4.07;;
79126;SDS011;68528;48.814;8.904;2023-09-07T10:41:47;6.03;;;4.63;;
79126;SDS011;68528;48.814;8.904;2023-09-07T10:44:13;6.13;;;4.20;;
79126;SDS011;68528;48.814;8.904;2023-09-07T10:46:39;8.68;;;4.18;;
79126;SDS011;68528;48.814;8.904;2023-09-07T10:49:06;9.00;;;5.10;;
79126;SDS011;68528;48.814;8.904;2023-09-07T10:51:39;6.07;;;5.47;;
79126;SDS011;68528;48.814;8.904;2023-09-07T10:54:13;8.52;;;4.22;;
79126;SDS011;68528;48.814;8.904;2023-09-07T10:56:49;7.75;;;4.53;;
79126;SDS011;68528;48.814;8.904;2023-09-07T11:01:52;5.70;;;4.50;;
79126;SDS011;68528;48.814;8.904;2023-09-07T11:04:20;7.43;;;4.75;;
79126;SDS011;68528;48.814;8.904;2023-09-07T11:14:31;5.25;;;4.00;;
79126;SDS011;68528;48.814;8.904;2023-09-07T11:17:02;7.05;;;4.18;;
79126;SDS011;68528;48.814;8.904;2023-09-07T11:24:29;5.45;;;4.13;;
79126;SDS011;68528;48.814;8.904;2023-09-07T11:26:55;6.82;;;4.20;;
79126;SDS011;68528;48.814;8.904;2023-09-07T11:29:22;6.22;;;4.13;;
79126;SDS011;68528;48.814;8.904;2023-09-07T11:31:48;6.40;;;4.63;;
79126;SDS011;68528;48.814;8.904;2023-09-07T11:34:14;5.25;;;4.60;;
79126;SDS011;68528;48.814;8.904;2023-09-07T11:36:41;8.63;;;5.03;;
79126;SDS011;68528;48.814;8.904;2023-09-07T11:39:08;6.68;;;4.45;;
79126;SDS011;68528;48.814;8.904;2023-09-07T11:41:43;7.43;;;4.22;;
79126;SDS011;68528;48.814;8.904;2023-09-07T11:44:10;5.93;;;5.13;;
79126;SDS011;68528;48.814;8.904;2023-09-07T11:46:36;5.13;;;4.57;;
79126;SDS011;68528;48.814;8.904;2023-09-07T11:49:02;4.90;;;4.30;;
79126;SDS011;68528;48.814;8.904;2023-09-07T11:51:29;4.95;;;4.45;;
79126;SDS011;68528;48.814;8.904;2023-09-07T11:53:58;6.63;;;4.65;;
79126;SDS011;68528;48.814;8.904;2023-09-07T11:57:00;5.00;;;4.50;;
79126;SDS011;68528;48.814;8.904;2023-09-07T11:59:25;5.60;;;3.92;;
79126;SDS011;68528;48.814;8.904;2023-09-07T12:01:50;4.88;;;4.45;;
79126;SDS011;68528;48.814;8.904;2023-09-07T12:04:16;7.47;;;4.70;;
79126;SDS011;68528;48.814;8.904;2023-09-07T12:06:41;5.68;;;3.85;;
79126;SDS011;68528;48.814;8.904;2023-09-07T12:09:07;5.90;;;4.40;;
79126;SDS011;68528;48.814;8.904;2023-09-07T12:11:34;5.20;;;4.70;;
79126;SDS011;68528;48.814;8.904;2023-09-07T12:14:00;7.32;;;4.22;;
79126;SDS011;68528;48.814;8.904;2023-09-07T12:16:26;7.47;;;4.38;;
79126;SDS011;68528;48.814;8.904;2023-09-07T12:18:52;5.15;;;4.25;;
79126;SDS011;68528;48.814;8.904;2023-09-07T12:21:18;4.93;;;4.18;;
79126;SDS011;68528;48.814;8.904;2023-09-07T12:23:44;5.05;;;3.97;;
79126;SDS011;68528;48.814;8.904;2023-09-07T12:26:09;6.80;;;4.55;;
79126;SDS011;68528;48.814;8.904;2023-09-07T12:28:37;8.57;;;5.55;;
79126;SDS011;68528;48.814;8.904;2023-09-07T12:31:16;7.15;;;4.20;;
79126;SDS011;68528;48.814;8.904;2023-09-07T12:33:48;4.95;;;4.18;;
79126;SDS011;68528;48.814;8.904;2023-09-07T12:36:13;7.80;;;4.60;;
79126;SDS011;68528;48.814;8.904;2023-09-07T12:38:40;8.20;;;4.72;;
79126;SDS011;68528;48.814;8.904;2023-09-07T12:41:05;6.13;;;4.15;;
79126;SDS011;68528;48.814;8.904;2023-09-07T12:43:30;6.35;;;4.35;;
79126;SDS011;68528;48.814;8.904;2023-09-07T12:46:08;11.05;;;4.70;;
79126;SDS011;68528;48.814;8.904;2023-09-07T12:49:00;6.50;;;4.63;;
79126;SDS011;68528;48.814;8.904;2023-09-07T12:51:25;4.88;;;3.85;;
79126;SDS011;68528;48.814;8.904;2023-09-07T12:53:51;6.38;;;4.43;;
79126;SDS011;68528;48.814;8.904;2023-09-07T12:56:16;6.32;;;3.95;;
79126;SDS011;68528;48.814;8.904;2023-09-07T12:58:43;4.45;;;4.05;;
79126;SDS011;68528;48.814;8.904;2023-09-07T13:01:08;5.35;;;3.70;;
79126;SDS011;68528;48.814;8.904;2023-09-07T13:03:35;8.13;;;4.00;;
79126;SDS011;68528;48.814;8.904;2023-09-07T13:06:02;6.65;;;4.30;;
79126;SDS011;68528;48.814;8.904;2023-09-07T13:08:28;7.20;;;4.13;;
79126;SDS011;68528;48.814;8.904;2023-09-07T13:10:54;4.95;;;3.72;;
79126;SDS011;68528;48.814;8.904;2023-09-07T13:13:20;6.63;;;4.32;;
79126;SDS011;68528;48.814;8.904;2023-09-07T13:15:47;5.82;;;4.35;;
79126;SDS011;68528;48.814;8.904;2023-09-07T13:18:12;6.15;;;4.28;;
79126;SDS011;68528;48.814;8.904;2023-09-07T13:20:38;6.57;;;3.80;;
79126;SDS011;68528;48.814;8.904;2023-09-07T13:23:04;8.43;;;4.07;;
79126;SDS011;68528;48.814;8.904;2023-09-07T13:25:32;6.18;;;3.47;;
79126;SDS011;68528;48.814;8.904;2023-09-07T13:28:19;4.53;;;3.85;;
79126;SDS011;68528;48.814;8.904;2023-09-07T13:30:44;5.63;;;4.05;;
79126;SDS011;68528;48.814;8.904;2023-09-07T13:33:09;5.65;;;3.40;;
79126;SDS011;68528;48.814;8.904;2023-09-07T13:35:36;4.68;;;3.58;;
79126;SDS011;68528;48.814;8.904;2023-09-07T13:38:02;4.28;;;3.80;;
79126;SDS011;68528;48.814;8.904;2023-09-07T13:43:25;3.75;;;3.22;;
79126;SDS011;68528;48.814;8.904;2023-09-07T13:45:51;4.30;;;3.65;;
79126;SDS011;68528;48.814;8.904;2023-09-07T13:58:53;3.67;;;3.38;;
79126;SDS011;68528;48.814;8.904;2023-09-07T14:01:38;6.55;;;3.55;;
79126;SDS011;68528;48.814;8.904;2023-09-07T14:04:04;10.75;;;4.13;;
79126;SDS011;68528;48.814;8.904;2023-09-07T14:06:30;8.13;;;3.50;;
79126;SDS011;68528;48.814;8.904;2023-09-07T14:08:55;4.47;;;3.50;;
79126;SDS011;68528;48.814;8.904;2023-09-07T14:11:21;5.80;;;4.00;;
79126;SDS011;68528;48.814;8.904;2023-09-07T14:13:47;6.75;;;3.80;;
79126;SDS011;68528;48.814;8.904;2023-09-07T14:16:19;3.72;;;3.33;;
79126;SDS011;68528;48.814;8.904;2023-09-07T14:18:56;7.75;;;3.97;;
79126;SDS011;68528;48.814;8.904;2023-09-07T14:21:22;5.63;;;3.40;;
79126;SDS011;68528;48.814;8.904;2023-09-07T14:23:57;3.47;;;2.95;;
79126;SDS011;68528;48.814;8.904;2023-09-07T14:26:22;6.20;;;3.83;;
79126;SDS011;68528;48.814;8.904;2023-09-07T14:28:47;7.33;;;3.87;;
79126;SDS011;68528;48.814;8.904;2023-09-07T14:31:13;10.77;;;3.78;;
79126;SDS011;68528;48.814;8.904;2023-09-07T14:33:38;5.43;;;3.28;;
79126;SDS011;68528;48.814;8.904;2023-09-07T14:36:08;5.25;;;3.60;;
79126;SDS011;68528;48.814;8.904;2023-09-07T14:38:43;3.92;;;3.53;;
79126;SDS011;68528;48.814;8.904;2023-09-07T14:41:09;5.95;;;3.58;;
79126;SDS011;68528;48.814;8.904;2023-09-07T14:43:42;5.30;;;3.38;;
79126;SDS011;68528;48.814;8.904;2023-09-07T14:46:08;4.57;;;3.30;;
79126;SDS011;68528;48.814;8.904;2023-09-07T14:48:33;6.60;;;3.20;;
79126;SDS011;68528;48.814;8.904;2023-09-07T14:50:59;4.68;;;2.90;;
79126;SDS011;68528;48.814;8.904;2023-09-07T14:53:25;6.28;;;3.28;;
79126;SDS011;68528;48.814;8.904;2023-09-07T14:55:51;5.68;;;4.30;;
79126;SDS011;68528;48.814;8.904;2023-09-07T14:58:17;8.55;;;3.33;;
79126;SDS011;68528;48.814;8.904;2023-09-07T15:01:03;4.20;;;2.72;;
79126;SDS011;68528;48.814;8.904;2023-09-07T15:05:57;5.57;;;3.60;;
79126;SDS011;68528;48.814;8.904;2023-09-07T15:08:23;6.13;;;3.80;;
79126;SDS011;68528;48.814;8.904;2023-09-07T15:10:49;4.20;;;3.40;;
79126;SDS011;68528;48.814;8.904;2023-09-07T15:13:15;4.05;;;3.30;;
79126;SDS011;68528;48.814;8.904;2023-09-07T15:15:41;4.30;;;3.15;;
79126;SDS011;68528;48.814;8.904;2023-09-07T15:18:07;4.95;;;3.35;;
79126;SDS011;68528;48.814;8.904;2023-09-07T15:20:33;3.85;;;2.97;;
79126;SDS011;68528;48.814;8.904;2023-09-07T15:22:59;3.67;;;3.20;;
79126;SDS011;68528;48.814;8.904;2023-09-07T15:25:24;5.75;;;2.92;;
79126;SDS011;68528;48.814;8.904;2023-09-07T15:27:51;5.75;;;2.92;;
79126;SDS011;68528;48.814;8.904;2023-09-07T15:30:19;5.25;;;3.00;;
79126;SDS011;68528;48.814;8.904;2023-09-07T15:32:48;4.28;;;3.20;;
79126;SDS011;68528;48.814;8.904;2023-09-07T15:35:16;3.95;;;2.92;;
79126;SDS011;68528;48.814;8.904;2023-09-07T15:37:42;3.35;;;3.05;;
79126;SDS011;68528;48.814;8.904;2023-09-07T15:40:11;3.92;;;3.08;;
79126;SDS011;68528;48.814;8.904;2023-09-07T15:42:37;6.57;;;3.40;;
79126;SDS011;68528;48.814;8.904;2023-09-07T15:45:03;3.88;;;3.38;;
79126;SDS011;68528;48.814;8.904;2023-09-07T15:47:30;3.90;;;3.15;;
79126;SDS011;68528;48.814;8.904;2023-09-07T15:52:27;4.82;;;3.15;;
79126;SDS011;68528;48.814;8.904;2023-09-07T15:54:54;4.55;;;3.13;;
79126;SDS011;68528;48.814;8.904;2023-09-07T15:57:20;8.52;;;3.63;;
79126;SDS011;68528;48.814;8.904;2023-09-07T15:59:45;4.53;;;3.28;;
79126;SDS011;68528;48.814;8.904;2023-09-07T16:02:11;5.05;;;3.17;;